sensor_id;sensor_type;location;lat;lon;timestamp;temperature;humidity
10129;DHT22;5104;50.720;7.044;2022-10-30T00:00:47;15.30;99.90
10129;DHT22;5104;50.720;7.044;2022-10-30T00:03:15;15.30;99.90
10129;DHT22;5104;50.720;7.044;2022-10-30T00:05:43;15.30;99.90
10129;DHT22;5104;50.720;7.044;2022-10-30T00:08:10;15.30;99.90
10129;DHT22;5104;50.720;7.044;2022-10-30T00:10:38;15.30;99.90
10129;DHT22;5104;50.720;7.044;2022-10-30T00:13:07;15.30;99.90
10129;DHT22;5104;50.720;7.044;2022-10-30T00:15:34;15.30;99.90
10129;DHT22;5104;50.720;7.044;2022-10-30T00:18:01;15.30;99.90
10129;DHT22;5104;50.720;7.044;2022-10-30T00:20:28;15.40;99.90
10129;DHT22;5104;50.720;7.044;2022-10-30T00:22:55;15.40;99.90
10129;DHT22;5104;50.720;7.044;2022-10-30T00:25:22;15.50;99.90
10129;DHT22;5104;50.720;7.044;2022-10-30T00:27:49;15.50;99.90
10129;DHT22;5104;50.720;7.044;2022-10-30T00:30:17;15.50;99.90
10129;DHT22;5104;50.720;7.044;2022-10-30T00:32:44;15.50;99.90
10129;DHT22;5104;50.720;7.044;2022-10-30T00:35:11;15.50;99.90
10129;DHT22;5104;50.720;7.044;2022-10-30T00:37:37;15.60;99.90
10129;DHT22;5104;50.720;7.044;2022-10-30T00:40:06;15.60;35.60
10129;DHT22;5104;50.720;7.044;2022-10-30T00:42:33;15.60;3.00
10129;DHT22;5104;50.720;7.044;2022-10-30T00:45:00;15.60;1.00
10129;DHT22;5104;50.720;7.044;2022-10-30T00:47:32;15.60;1.30
10129;DHT22;5104;50.720;7.044;2022-10-30T00:50:03;15.60;10.20
10129;DHT22;5104;50.720;7.044;2022-10-30T00:52:34;15.60;53.20
10129;DHT22;5104;50.720;7.044;2022-10-30T00:55:06;15.50;99.90
10129;DHT22;5104;50.720;7.044;2022-10-30T00:57:34;15.50;99.90
10129;DHT22;5104;50.720;7.044;2022-10-30T01:00:01;15.50;99.90
10129;DHT22;5104;50.720;7.044;2022-10-30T01:02:30;15.40;99.90
10129;DHT22;5104;50.720;7.044;2022-10-30T01:04:57;15.40;99.90
10129;DHT22;5104;50.720;7.044;2022-10-30T01:07:24;15.30;99.90
10129;DHT22;5104;50.720;7.044;2022-10-30T01:09:51;15.30;99.90
10129;DHT22;5104;50.720;7.044;2022-10-30T01:12:18;15.20;99.90
10129;DHT22;5104;50.720;7.044;2022-10-30T01:14:49;15.20;99.90
10129;DHT22;5104;50.720;7.044;2022-10-30T01:20:27;15.00;99.90
10129;DHT22;5104;50.720;7.044;2022-10-30T01:23:01;14.90;99.90
10129;DHT22;5104;50.720;7.044;2022-10-30T01:25:41;14.80;99.90
10129;DHT22;5104;50.720;7.044;2022-10-30T01:28:21;14.70;99.90
10129;DHT22;5104;50.720;7.044;2022-10-30T01:31:02;14.60;99.90
10129;DHT22;5104;50.720;7.044;2022-10-30T01:33:43;14.50;99.90
10129;DHT22;5104;50.720;7.044;2022-10-30T01:36:23;14.40;99.90
10129;DHT22;5104;50.720;7.044;2022-10-30T01:38:54;14.30;99.90
10129;DHT22;5104;50.720;7.044;2022-10-30T01:41:22;14.30;99.90
10129;DHT22;5104;50.720;7.044;2022-10-30T01:43:51;14.20;99.90
10129;DHT22;5104;50.720;7.044;2022-10-30T01:46:38;14.30;99.90
10129;DHT22;5104;50.720;7.044;2022-10-30T01:52:08;14.30;99.90
10129;DHT22;5104;50.720;7.044;2022-10-30T01:54:40;14.30;99.90
10129;DHT22;5104;50.720;7.044;2022-10-30T01:57:15;14.30;99.90
10129;DHT22;5104;50.720;7.044;2022-10-30T01:59:46;14.30;99.90
10129;DHT22;5104;50.720;7.044;2022-10-30T02:02:16;14.30;99.90
10129;DHT22;5104;50.720;7.044;2022-10-30T02:04:43;14.30;99.90
10129;DHT22;5104;50.720;7.044;2022-10-30T02:07:11;14.40;99.90
10129;DHT22;5104;50.720;7.044;2022-10-30T02:09:38;14.40;99.90
10129;DHT22;5104;50.720;7.044;2022-10-30T02:12:06;14.40;99.90
10129;DHT22;5104;50.720;7.044;2022-10-30T02:14:37;14.40;99.90
10129;DHT22;5104;50.720;7.044;2022-10-30T02:17:07;14.30;99.90
10129;DHT22;5104;50.720;7.044;2022-10-30T02:19:36;14.20;99.90
10129;DHT22;5104;50.720;7.044;2022-10-30T02:22:04;14.10;99.90
10129;DHT22;5104;50.720;7.044;2022-10-30T02:24:32;14.00;99.90
10129;DHT22;5104;50.720;7.044;2022-10-30T02:26:59;13.90;99.90
10129;DHT22;5104;50.720;7.044;2022-10-30T02:29:26;13.80;99.90
10129;DHT22;5104;50.720;7.044;2022-10-30T02:31:52;13.70;99.90
10129;DHT22;5104;50.720;7.044;2022-10-30T02:34:19;13.70;99.90
10129;DHT22;5104;50.720;7.044;2022-10-30T02:36:46;13.60;99.90
10129;DHT22;5104;50.720;7.044;2022-10-30T02:39:14;13.50;99.90
10129;DHT22;5104;50.720;7.044;2022-10-30T02:41:42;13.40;99.90
10129;DHT22;5104;50.720;7.044;2022-10-30T02:44:09;13.40;99.90
10129;DHT22;5104;50.720;7.044;2022-10-30T02:46:36;13.30;99.90
10129;DHT22;5104;50.720;7.044;2022-10-30T02:49:02;13.30;99.90
10129;DHT22;5104;50.720;7.044;2022-10-30T02:51:30;13.30;99.90
10129;DHT22;5104;50.720;7.044;2022-10-30T02:53:57;13.30;99.90
10129;DHT22;5104;50.720;7.044;2022-10-30T02:56:26;13.30;99.90
10129;DHT22;5104;50.720;7.044;2022-10-30T02:58:54;13.30;99.90
10129;DHT22;5104;50.720;7.044;2022-10-30T03:01:21;13.20;99.90
10129;DHT22;5104;50.720;7.044;2022-10-30T03:03:47;13.20;99.90
10129;DHT22;5104;50.720;7.044;2022-10-30T03:06:15;13.20;99.90
10129;DHT22;5104;50.720;7.044;2022-10-30T03:08:43;13.10;99.90
10129;DHT22;5104;50.720;7.044;2022-10-30T03:11:12;13.10;99.90
10129;DHT22;5104;50.720;7.044;2022-10-30T03:13:41;13.10;99.90
10129;DHT22;5104;50.720;7.044;2022-10-30T03:16:10;13.00;99.90
10129;DHT22;5104;50.720;7.044;2022-10-30T03:18:37;12.90;99.90
10129;DHT22;5104;50.720;7.044;2022-10-30T03:21:05;12.90;99.90
10129;DHT22;5104;50.720;7.044;2022-10-30T03:23:34;12.80;99.90
10129;DHT22;5104;50.720;7.044;2022-10-30T03:26:01;12.80;99.90
10129;DHT22;5104;50.720;7.044;2022-10-30T03:28:29;12.80;99.90
10129;DHT22;5104;50.720;7.044;2022-10-30T03:31:01;12.70;99.90
10129;DHT22;5104;50.720;7.044;2022-10-30T03:33:29;12.70;99.90
10129;DHT22;5104;50.720;7.044;2022-10-30T03:35:55;12.60;99.90
10129;DHT22;5104;50.720;7.044;2022-10-30T03:38:22;12.60;99.90
10129;DHT22;5104;50.720;7.044;2022-10-30T03:40:49;12.60;99.90
10129;DHT22;5104;50.720;7.044;2022-10-30T03:43:16;12.50;99.90
10129;DHT22;5104;50.720;7.044;2022-10-30T03:45:46;12.50;99.90
10129;DHT22;5104;50.720;7.044;2022-10-30T03:48:15;12.50;99.90
10129;DHT22;5104;50.720;7.044;2022-10-30T03:50:42;12.40;99.90
10129;DHT22;5104;50.720;7.044;2022-10-30T03:53:09;12.40;99.90
10129;DHT22;5104;50.720;7.044;2022-10-30T03:55:36;12.40;99.90
10129;DHT22;5104;50.720;7.044;2022-10-30T03:58:03;12.40;99.90
10129;DHT22;5104;50.720;7.044;2022-10-30T04:00:30;12.40;99.90
10129;DHT22;5104;50.720;7.044;2022-10-30T04:02:58;12.30;99.90
10129;DHT22;5104;50.720;7.044;2022-10-30T04:05:27;12.20;99.90
10129;DHT22;5104;50.720;7.044;2022-10-30T04:07:55;12.20;99.90
10129;DHT22;5104;50.720;7.044;2022-10-30T04:10:22;12.20;99.90
10129;DHT22;5104;50.720;7.044;2022-10-30T04:12:49;12.30;99.90
10129;DHT22;5104;50.720;7.044;2022-10-30T04:15:16;12.20;99.90
10129;DHT22;5104;50.720;7.044;2022-10-30T04:17:48;12.20;99.90
10129;DHT22;5104;50.720;7.044;2022-10-30T04:20:15;12.20;99.90
10129;DHT22;5104;50.720;7.044;2022-10-30T04:22:44;12.20;99.90
10129;DHT22;5104;50.720;7.044;2022-10-30T04:25:11;12.20;99.90
10129;DHT22;5104;50.720;7.044;2022-10-30T04:27:39;12.20;99.90
10129;DHT22;5104;50.720;7.044;2022-10-30T04:30:07;12.20;99.90
10129;DHT22;5104;50.720;7.044;2022-10-30T04:32:35;12.10;99.90
10129;DHT22;5104;50.720;7.044;2022-10-30T04:35:03;12.10;99.90
10129;DHT22;5104;50.720;7.044;2022-10-30T04:37:30;12.10;99.90
10129;DHT22;5104;50.720;7.044;2022-10-30T04:39:58;12.00;99.90
10129;DHT22;5104;50.720;7.044;2022-10-30T04:42:25;12.00;99.90
10129;DHT22;5104;50.720;7.044;2022-10-30T04:44:51;11.90;99.90
10129;DHT22;5104;50.720;7.044;2022-10-30T04:47:18;11.90;99.90
10129;DHT22;5104;50.720;7.044;2022-10-30T04:49:45;11.90;99.90
10129;DHT22;5104;50.720;7.044;2022-10-30T04:52:12;11.80;99.90
10129;DHT22;5104;50.720;7.044;2022-10-30T04:54:39;11.80;99.90
10129;DHT22;5104;50.720;7.044;2022-10-30T04:57:07;11.80;99.90
10129;DHT22;5104;50.720;7.044;2022-10-30T04:59:33;11.80;99.90
10129;DHT22;5104;50.720;7.044;2022-10-30T05:02:00;11.90;99.90
10129;DHT22;5104;50.720;7.044;2022-10-30T05:04:27;11.90;99.90
10129;DHT22;5104;50.720;7.044;2022-10-30T05:06:54;11.90;99.90
10129;DHT22;5104;50.720;7.044;2022-10-30T05:09:21;11.90;99.90
10129;DHT22;5104;50.720;7.044;2022-10-30T05:11:47;11.80;99.90
10129;DHT22;5104;50.720;7.044;2022-10-30T05:14:15;11.80;99.90
10129;DHT22;5104;50.720;7.044;2022-10-30T05:16:42;11.80;99.90
10129;DHT22;5104;50.720;7.044;2022-10-30T05:19:09;11.80;99.90
10129;DHT22;5104;50.720;7.044;2022-10-30T05:21:36;11.70;99.90
10129;DHT22;5104;50.720;7.044;2022-10-30T05:24:03;11.70;99.90
10129;DHT22;5104;50.720;7.044;2022-10-30T05:26:30;11.70;99.90
10129;DHT22;5104;50.720;7.044;2022-10-30T05:28:56;11.60;99.90
10129;DHT22;5104;50.720;7.044;2022-10-30T05:31:24;11.60;99.90
10129;DHT22;5104;50.720;7.044;2022-10-30T05:33:51;11.60;99.90
10129;DHT22;5104;50.720;7.044;2022-10-30T05:36:18;11.50;99.90
10129;DHT22;5104;50.720;7.044;2022-10-30T05:38:45;11.40;99.90
10129;DHT22;5104;50.720;7.044;2022-10-30T05:41:12;11.40;99.90
10129;DHT22;5104;50.720;7.044;2022-10-30T05:43:39;11.40;99.90
10129;DHT22;5104;50.720;7.044;2022-10-30T05:46:05;11.50;99.90
10129;DHT22;5104;50.720;7.044;2022-10-30T05:48:34;11.50;99.90
10129;DHT22;5104;50.720;7.044;2022-10-30T05:51:00;11.50;99.90
10129;DHT22;5104;50.720;7.044;2022-10-30T05:53:29;11.50;99.90
10129;DHT22;5104;50.720;7.044;2022-10-30T05:55:56;11.50;99.90
10129;DHT22;5104;50.720;7.044;2022-10-30T05:58:23;11.50;99.90
10129;DHT22;5104;50.720;7.044;2022-10-30T06:00:50;11.40;99.90
10129;DHT22;5104;50.720;7.044;2022-10-30T06:03:17;11.40;99.90
10129;DHT22;5104;50.720;7.044;2022-10-30T06:05:46;11.30;99.90
10129;DHT22;5104;50.720;7.044;2022-10-30T06:08:13;11.30;99.90
10129;DHT22;5104;50.720;7.044;2022-10-30T06:10:41;11.30;99.90
10129;DHT22;5104;50.720;7.044;2022-10-30T06:13:09;11.30;99.90
10129;DHT22;5104;50.720;7.044;2022-10-30T06:15:36;11.30;99.90
10129;DHT22;5104;50.720;7.044;2022-10-30T06:18:03;11.40;99.90
10129;DHT22;5104;50.720;7.044;2022-10-30T06:20:30;11.40;99.90
10129;DHT22;5104;50.720;7.044;2022-10-30T06:23:00;11.40;99.90
10129;DHT22;5104;50.720;7.044;2022-10-30T06:25:28;11.40;99.90
10129;DHT22;5104;50.720;7.044;2022-10-30T06:27:55;11.50;99.90
10129;DHT22;5104;50.720;7.044;2022-10-30T06:30:23;11.50;99.90
10129;DHT22;5104;50.720;7.044;2022-10-30T06:32:55;11.50;99.90
10129;DHT22;5104;50.720;7.044;2022-10-30T06:35:22;11.40;99.90
10129;DHT22;5104;50.720;7.044;2022-10-30T06:37:49;11.50;99.90
10129;DHT22;5104;50.720;7.044;2022-10-30T06:40:19;11.50;99.90
10129;DHT22;5104;50.720;7.044;2022-10-30T06:42:48;11.50;99.90
10129;DHT22;5104;50.720;7.044;2022-10-30T06:45:16;11.50;99.90
10129;DHT22;5104;50.720;7.044;2022-10-30T06:47:43;11.50;99.90
10129;DHT22;5104;50.720;7.044;2022-10-30T06:50:13;11.50;99.90
10129;DHT22;5104;50.720;7.044;2022-10-30T06:52:40;11.50;99.90
10129;DHT22;5104;50.720;7.044;2022-10-30T06:55:08;11.50;99.90
10129;DHT22;5104;50.720;7.044;2022-10-30T06:57:36;11.50;99.90
10129;DHT22;5104;50.720;7.044;2022-10-30T07:00:05;11.60;99.90
10129;DHT22;5104;50.720;7.044;2022-10-30T07:02:32;11.70;99.90
10129;DHT22;5104;50.720;7.044;2022-10-30T07:04:59;11.70;99.90
10129;DHT22;5104;50.720;7.044;2022-10-30T07:07:26;11.90;99.90
10129;DHT22;5104;50.720;7.044;2022-10-30T07:09:52;11.90;99.90
10129;DHT22;5104;50.720;7.044;2022-10-30T07:12:19;11.90;99.90
10129;DHT22;5104;50.720;7.044;2022-10-30T07:14:47;12.00;99.90
10129;DHT22;5104;50.720;7.044;2022-10-30T07:17:14;12.10;99.90
10129;DHT22;5104;50.720;7.044;2022-10-30T07:19:41;12.20;99.90
10129;DHT22;5104;50.720;7.044;2022-10-30T07:22:08;12.30;99.90
10129;DHT22;5104;50.720;7.044;2022-10-30T07:24:35;12.30;99.90
10129;DHT22;5104;50.720;7.044;2022-10-30T07:27:01;12.30;99.90
10129;DHT22;5104;50.720;7.044;2022-10-30T07:29:29;12.40;99.90
10129;DHT22;5104;50.720;7.044;2022-10-30T07:31:57;12.50;99.90
10129;DHT22;5104;50.720;7.044;2022-10-30T07:34:24;12.60;99.90
10129;DHT22;5104;50.720;7.044;2022-10-30T07:36:51;12.70;99.90
10129;DHT22;5104;50.720;7.044;2022-10-30T07:39:18;12.80;99.90
10129;DHT22;5104;50.720;7.044;2022-10-30T07:41:44;12.90;99.90
10129;DHT22;5104;50.720;7.044;2022-10-30T07:44:11;13.00;99.90
10129;DHT22;5104;50.720;7.044;2022-10-30T07:46:38;13.10;99.90
10129;DHT22;5104;50.720;7.044;2022-10-30T07:49:06;13.30;99.90
10129;DHT22;5104;50.720;7.044;2022-10-30T07:51:33;13.40;99.90
10129;DHT22;5104;50.720;7.044;2022-10-30T07:54:00;13.50;99.90
10129;DHT22;5104;50.720;7.044;2022-10-30T07:56:27;13.60;99.90
10129;DHT22;5104;50.720;7.044;2022-10-30T07:58:54;13.80;99.90
10129;DHT22;5104;50.720;7.044;2022-10-30T08:01:21;13.90;99.90
10129;DHT22;5104;50.720;7.044;2022-10-30T08:03:47;14.10;99.90
10129;DHT22;5104;50.720;7.044;2022-10-30T08:06:16;14.20;99.90
10129;DHT22;5104;50.720;7.044;2022-10-30T08:08:42;14.40;99.90
10129;DHT22;5104;50.720;7.044;2022-10-30T08:11:09;14.50;99.90
10129;DHT22;5104;50.720;7.044;2022-10-30T08:13:36;14.70;99.90
10129;DHT22;5104;50.720;7.044;2022-10-30T08:16:03;14.80;99.90
10129;DHT22;5104;50.720;7.044;2022-10-30T08:18:30;14.90;99.90
10129;DHT22;5104;50.720;7.044;2022-10-30T08:20:56;15.10;99.90
10129;DHT22;5104;50.720;7.044;2022-10-30T08:23:25;15.20;99.90
10129;DHT22;5104;50.720;7.044;2022-10-30T08:25:51;15.30;99.90
10129;DHT22;5104;50.720;7.044;2022-10-30T08:28:18;15.40;99.90
10129;DHT22;5104;50.720;7.044;2022-10-30T08:30:45;15.50;99.90
10129;DHT22;5104;50.720;7.044;2022-10-30T08:33:12;15.60;99.90
10129;DHT22;5104;50.720;7.044;2022-10-30T08:35:46;15.70;99.90
10129;DHT22;5104;50.720;7.044;2022-10-30T08:38:14;15.80;99.90
10129;DHT22;5104;50.720;7.044;2022-10-30T08:40:42;15.90;99.90
10129;DHT22;5104;50.720;7.044;2022-10-30T08:43:09;16.00;99.90
10129;DHT22;5104;50.720;7.044;2022-10-30T08:45:36;16.10;99.90
10129;DHT22;5104;50.720;7.044;2022-10-30T08:48:04;16.20;99.90
10129;DHT22;5104;50.720;7.044;2022-10-30T08:50:32;16.20;99.90
10129;DHT22;5104;50.720;7.044;2022-10-30T08:53:00;16.30;99.90
10129;DHT22;5104;50.720;7.044;2022-10-30T08:55:27;16.40;99.90
10129;DHT22;5104;50.720;7.044;2022-10-30T08:57:55;16.40;99.90
10129;DHT22;5104;50.720;7.044;2022-10-30T09:00:22;16.50;99.90
10129;DHT22;5104;50.720;7.044;2022-10-30T09:02:49;16.60;92.70
10129;DHT22;5104;50.720;7.044;2022-10-30T09:05:16;16.70;1.00
10129;DHT22;5104;50.720;7.044;2022-10-30T09:07:43;16.80;99.90
10129;DHT22;5104;50.720;7.044;2022-10-30T09:10:10;17.00;99.90
10129;DHT22;5104;50.720;7.044;2022-10-30T09:12:37;17.00;99.90
10129;DHT22;5104;50.720;7.044;2022-10-30T09:15:06;17.10;99.90
10129;DHT22;5104;50.720;7.044;2022-10-30T09:17:33;17.10;99.90
10129;DHT22;5104;50.720;7.044;2022-10-30T09:20:00;17.20;99.90
10129;DHT22;5104;50.720;7.044;2022-10-30T09:22:27;17.30;99.90
10129;DHT22;5104;50.720;7.044;2022-10-30T09:24:54;17.40;99.90
10129;DHT22;5104;50.720;7.044;2022-10-30T09:27:20;17.40;99.90
10129;DHT22;5104;50.720;7.044;2022-10-30T09:29:47;17.40;99.90
10129;DHT22;5104;50.720;7.044;2022-10-30T09:32:15;17.50;99.90
10129;DHT22;5104;50.720;7.044;2022-10-30T09:34:42;17.50;99.90
10129;DHT22;5104;50.720;7.044;2022-10-30T09:37:09;17.60;99.90
10129;DHT22;5104;50.720;7.044;2022-10-30T09:39:36;17.70;99.90
10129;DHT22;5104;50.720;7.044;2022-10-30T09:42:23;17.80;99.90
10129;DHT22;5104;50.720;7.044;2022-10-30T09:45:02;17.90;99.90
10129;DHT22;5104;50.720;7.044;2022-10-30T09:47:40;18.00;99.90
10129;DHT22;5104;50.720;7.044;2022-10-30T09:50:21;18.10;99.90
10129;DHT22;5104;50.720;7.044;2022-10-30T09:52:56;18.10;99.90
10129;DHT22;5104;50.720;7.044;2022-10-30T09:55:38;18.20;99.90
10129;DHT22;5104;50.720;7.044;2022-10-30T09:58:18;18.40;96.90
10129;DHT22;5104;50.720;7.044;2022-10-30T10:00:51;18.50;93.90
10129;DHT22;5104;50.720;7.044;2022-10-30T10:03:32;18.60;95.20
10129;DHT22;5104;50.720;7.044;2022-10-30T10:06:02;18.70;97.20
10129;DHT22;5104;50.720;7.044;2022-10-30T10:08:35;18.80;96.80
10129;DHT22;5104;50.720;7.044;2022-10-30T10:11:08;18.90;93.30
10129;DHT22;5104;50.720;7.044;2022-10-30T10:13:41;19.00;94.70
10129;DHT22;5104;50.720;7.044;2022-10-30T10:16:14;19.10;93.10
10129;DHT22;5104;50.720;7.044;2022-10-30T10:18:47;19.20;93.80
10129;DHT22;5104;50.720;7.044;2022-10-30T10:21:24;19.20;91.70
10129;DHT22;5104;50.720;7.044;2022-10-30T10:23:54;19.30;93.20
10129;DHT22;5104;50.720;7.044;2022-10-30T10:26:26;19.40;92.80
10129;DHT22;5104;50.720;7.044;2022-10-30T10:29:15;19.40;91.50
10129;DHT22;5104;50.720;7.044;2022-10-30T10:31:53;19.50;92.10
10129;DHT22;5104;50.720;7.044;2022-10-30T10:34:40;19.70;90.60
10129;DHT22;5104;50.720;7.044;2022-10-30T10:37:16;19.80;91.40
10129;DHT22;5104;50.720;7.044;2022-10-30T10:40:02;19.80;89.70
10129;DHT22;5104;50.720;7.044;2022-10-30T10:42:38;19.90;91.20
10129;DHT22;5104;50.720;7.044;2022-10-30T10:45:19;19.90;90.90
10129;DHT22;5104;50.720;7.044;2022-10-30T10:48:06;20.00;91.00
10129;DHT22;5104;50.720;7.044;2022-10-30T10:50:46;19.90;88.80
10129;DHT22;5104;50.720;7.044;2022-10-30T10:53:19;19.90;87.80
10129;DHT22;5104;50.720;7.044;2022-10-30T10:55:49;19.90;88.50
10129;DHT22;5104;50.720;7.044;2022-10-30T10:58:26;20.10;90.00
10129;DHT22;5104;50.720;7.044;2022-10-30T11:00:56;20.20;90.10
10129;DHT22;5104;50.720;7.044;2022-10-30T11:03:28;20.30;86.70
10129;DHT22;5104;50.720;7.044;2022-10-30T11:06:04;20.30;84.40
10129;DHT22;5104;50.720;7.044;2022-10-30T11:08:37;20.40;89.00
10129;DHT22;5104;50.720;7.044;2022-10-30T11:11:05;20.40;88.50
10129;DHT22;5104;50.720;7.044;2022-10-30T11:13:34;20.30;82.00
10129;DHT22;5104;50.720;7.044;2022-10-30T11:16:08;20.30;85.40
10129;DHT22;5104;50.720;7.044;2022-10-30T11:18:40;20.40;84.90
10129;DHT22;5104;50.720;7.044;2022-10-30T11:21:10;20.40;82.60
10129;DHT22;5104;50.720;7.044;2022-10-30T11:23:40;20.50;85.40
10129;DHT22;5104;50.720;7.044;2022-10-30T11:26:28;20.70;82.80
10129;DHT22;5104;50.720;7.044;2022-10-30T11:28:58;20.80;81.50
10129;DHT22;5104;50.720;7.044;2022-10-30T11:31:28;20.90;83.10
10129;DHT22;5104;50.720;7.044;2022-10-30T11:34:13;20.80;74.10
10129;DHT22;5104;50.720;7.044;2022-10-30T11:36:41;20.90;71.20
10129;DHT22;5104;50.720;7.044;2022-10-30T11:39:09;21.00;72.10
10129;DHT22;5104;50.720;7.044;2022-10-30T11:41:36;21.00;68.70
10129;DHT22;5104;50.720;7.044;2022-10-30T11:44:04;21.20;70.10
10129;DHT22;5104;50.720;7.044;2022-10-30T11:46:33;21.20;64.30
10129;DHT22;5104;50.720;7.044;2022-10-30T11:49:01;21.30;64.50
10129;DHT22;5104;50.720;7.044;2022-10-30T11:51:34;21.30;63.30
10129;DHT22;5104;50.720;7.044;2022-10-30T11:54:03;21.30;61.10
10129;DHT22;5104;50.720;7.044;2022-10-30T11:56:31;21.10;59.70
10129;DHT22;5104;50.720;7.044;2022-10-30T11:59:01;21.10;60.60
10129;DHT22;5104;50.720;7.044;2022-10-30T12:01:30;21.10;61.40
10129;DHT22;5104;50.720;7.044;2022-10-30T12:04:14;21.10;60.10
10129;DHT22;5104;50.720;7.044;2022-10-30T12:06:41;21.30;62.30
10129;DHT22;5104;50.720;7.044;2022-10-30T12:09:14;21.40;60.70
10129;DHT22;5104;50.720;7.044;2022-10-30T12:11:45;21.50;60.80
10129;DHT22;5104;50.720;7.044;2022-10-30T12:14:16;21.40;61.40
10129;DHT22;5104;50.720;7.044;2022-10-30T12:16:46;21.50;58.60
10129;DHT22;5104;50.720;7.044;2022-10-30T12:19:14;21.60;58.30
10129;DHT22;5104;50.720;7.044;2022-10-30T12:21:44;21.70;57.30
10129;DHT22;5104;50.720;7.044;2022-10-30T12:24:17;21.70;50.30
10129;DHT22;5104;50.720;7.044;2022-10-30T12:26:47;21.70;51.30
10129;DHT22;5104;50.720;7.044;2022-10-30T12:29:16;21.70;54.00
10129;DHT22;5104;50.720;7.044;2022-10-30T12:31:49;21.70;50.70
10129;DHT22;5104;50.720;7.044;2022-10-30T12:34:32;21.80;52.70
10129;DHT22;5104;50.720;7.044;2022-10-30T12:37:04;21.80;54.20
10129;DHT22;5104;50.720;7.044;2022-10-30T12:39:45;21.80;55.60
10129;DHT22;5104;50.720;7.044;2022-10-30T12:42:15;21.80;57.40
10129;DHT22;5104;50.720;7.044;2022-10-30T12:44:44;21.70;58.40
10129;DHT22;5104;50.720;7.044;2022-10-30T12:47:19;21.70;58.30
10129;DHT22;5104;50.720;7.044;2022-10-30T12:49:50;21.70;60.10
10129;DHT22;5104;50.720;7.044;2022-10-30T12:52:20;21.70;59.80
10129;DHT22;5104;50.720;7.044;2022-10-30T12:54:55;21.70;59.00
10129;DHT22;5104;50.720;7.044;2022-10-30T12:57:25;21.60;62.40
10129;DHT22;5104;50.720;7.044;2022-10-30T12:59:59;21.60;62.70
10129;DHT22;5104;50.720;7.044;2022-10-30T13:02:34;21.70;62.30
10129;DHT22;5104;50.720;7.044;2022-10-30T13:05:05;21.70;60.30
10129;DHT22;5104;50.720;7.044;2022-10-30T13:07:43;21.70;58.30
10129;DHT22;5104;50.720;7.044;2022-10-30T13:10:21;21.60;49.90
10129;DHT22;5104;50.720;7.044;2022-10-30T13:12:51;21.60;53.30
10129;DHT22;5104;50.720;7.044;2022-10-30T13:15:24;21.50;50.10
10129;DHT22;5104;50.720;7.044;2022-10-30T13:17:55;21.40;50.80
10129;DHT22;5104;50.720;7.044;2022-10-30T13:20:23;21.30;49.10
10129;DHT22;5104;50.720;7.044;2022-10-30T13:22:58;21.20;51.80
10129;DHT22;5104;50.720;7.044;2022-10-30T13:25:32;21.10;53.70
10129;DHT22;5104;50.720;7.044;2022-10-30T13:28:05;21.00;55.00
10129;DHT22;5104;50.720;7.044;2022-10-30T13:30:36;21.00;57.20
10129;DHT22;5104;50.720;7.044;2022-10-30T13:33:09;21.00;59.30
10129;DHT22;5104;50.720;7.044;2022-10-30T13:35:44;20.90;62.30
10129;DHT22;5104;50.720;7.044;2022-10-30T13:38:33;20.80;62.30
10129;DHT22;5104;50.720;7.044;2022-10-30T13:41:10;20.70;65.20
10129;DHT22;5104;50.720;7.044;2022-10-30T13:43:49;20.60;64.40
10129;DHT22;5104;50.720;7.044;2022-10-30T13:46:43;20.50;67.50
10129;DHT22;5104;50.720;7.044;2022-10-30T13:49:31;20.50;70.30
10129;DHT22;5104;50.720;7.044;2022-10-30T13:52:09;20.50;69.80
10129;DHT22;5104;50.720;7.044;2022-10-30T13:54:41;20.40;69.30
10129;DHT22;5104;50.720;7.044;2022-10-30T13:57:18;20.40;70.40
10129;DHT22;5104;50.720;7.044;2022-10-30T14:00:03;20.40;74.70
10129;DHT22;5104;50.720;7.044;2022-10-30T14:02:41;20.40;76.70
10129;DHT22;5104;50.720;7.044;2022-10-30T14:05:22;20.40;76.60
10129;DHT22;5104;50.720;7.044;2022-10-30T14:07:59;20.40;78.00
10129;DHT22;5104;50.720;7.044;2022-10-30T14:10:43;20.30;82.80
10129;DHT22;5104;50.720;7.044;2022-10-30T14:13:20;20.30;87.30
10129;DHT22;5104;50.720;7.044;2022-10-30T14:15:52;20.30;84.50
10129;DHT22;5104;50.720;7.044;2022-10-30T14:21:39;20.20;90.00
10129;DHT22;5104;50.720;7.044;2022-10-30T14:24:18;20.10;91.60
10129;DHT22;5104;50.720;7.044;2022-10-30T14:26:48;20.00;92.80
10129;DHT22;5104;50.720;7.044;2022-10-30T14:29:39;19.90;93.60
10129;DHT22;5104;50.720;7.044;2022-10-30T14:32:32;19.80;93.50
10129;DHT22;5104;50.720;7.044;2022-10-30T14:35:00;19.70;93.40
10129;DHT22;5104;50.720;7.044;2022-10-30T14:37:53;19.70;92.80
10129;DHT22;5104;50.720;7.044;2022-10-30T14:40:38;19.60;78.00
10129;DHT22;5104;50.720;7.044;2022-10-30T14:43:11;19.60;63.40
10129;DHT22;5104;50.720;7.044;2022-10-30T14:45:46;19.60;58.50
10129;DHT22;5104;50.720;7.044;2022-10-30T14:48:18;19.60;50.20
10129;DHT22;5104;50.720;7.044;2022-10-30T14:50:56;19.60;49.50
10129;DHT22;5104;50.720;7.044;2022-10-30T14:53:38;19.60;47.90
10129;DHT22;5104;50.720;7.044;2022-10-30T14:56:20;19.60;48.00
10129;DHT22;5104;50.720;7.044;2022-10-30T14:59:07;19.50;48.50
10129;DHT22;5104;50.720;7.044;2022-10-30T15:01:43;19.40;51.70
10129;DHT22;5104;50.720;7.044;2022-10-30T15:04:18;19.30;54.00
10129;DHT22;5104;50.720;7.044;2022-10-30T15:07:00;19.20;58.80
10129;DHT22;5104;50.720;7.044;2022-10-30T15:09:55;19.10;66.00
10129;DHT22;5104;50.720;7.044;2022-10-30T15:12:36;19.00;77.00
10129;DHT22;5104;50.720;7.044;2022-10-30T15:15:10;18.90;89.10
10129;DHT22;5104;50.720;7.044;2022-10-30T15:17:41;18.80;94.10
10129;DHT22;5104;50.720;7.044;2022-10-30T15:20:16;18.70;99.10
10129;DHT22;5104;50.720;7.044;2022-10-30T15:22:44;18.60;99.90
10129;DHT22;5104;50.720;7.044;2022-10-30T15:25:17;18.60;99.90
10129;DHT22;5104;50.720;7.044;2022-10-30T15:27:45;18.60;99.90
10129;DHT22;5104;50.720;7.044;2022-10-30T15:30:16;18.60;99.90
10129;DHT22;5104;50.720;7.044;2022-10-30T15:32:45;18.60;70.40
10129;DHT22;5104;50.720;7.044;2022-10-30T15:35:15;18.60;68.20
10129;DHT22;5104;50.720;7.044;2022-10-30T15:37:58;18.60;67.00
10129;DHT22;5104;50.720;7.044;2022-10-30T15:40:26;18.70;57.20
10129;DHT22;5104;50.720;7.044;2022-10-30T15:42:54;18.60;58.50
10129;DHT22;5104;50.720;7.044;2022-10-30T15:45:24;18.60;58.00
10129;DHT22;5104;50.720;7.044;2022-10-30T15:47:57;18.50;57.80
10129;DHT22;5104;50.720;7.044;2022-10-30T15:50:25;18.40;58.00
10129;DHT22;5104;50.720;7.044;2022-10-30T15:52:52;18.40;57.30
10129;DHT22;5104;50.720;7.044;2022-10-30T15:55:25;18.30;56.70
10129;DHT22;5104;50.720;7.044;2022-10-30T15:57:54;18.30;57.90
10129;DHT22;5104;50.720;7.044;2022-10-30T16:00:24;18.20;57.90
10129;DHT22;5104;50.720;7.044;2022-10-30T16:03:06;18.10;58.50
10129;DHT22;5104;50.720;7.044;2022-10-30T16:05:34;18.00;60.40
10129;DHT22;5104;50.720;7.044;2022-10-30T16:08:02;18.00;58.40
10129;DHT22;5104;50.720;7.044;2022-10-30T16:10:32;18.00;59.70
10129;DHT22;5104;50.720;7.044;2022-10-30T16:13:00;17.90;60.60
10129;DHT22;5104;50.720;7.044;2022-10-30T16:15:30;17.80;60.70
10129;DHT22;5104;50.720;7.044;2022-10-30T16:18:09;17.60;62.90